sensor_id;sensor_type;location;lat;lon;timestamp;P1;durP1;ratioP1;P2;durP2;ratioP2
63699;SDS011;49845;47.130;142.766;2023-04-03T00:02:10;55.22;;;26.23;;
63699;SDS011;49845;47.130;142.766;2023-04-03T00:04:43;51.80;;;25.55;;
63699;SDS011;49845;47.130;142.766;2023-04-03T00:07:17;50.55;;;24.55;;
63699;SDS011;49845;47.130;142.766;2023-04-03T00:09:49;47.17;;;25.60;;
63699;SDS011;49845;47.130;142.766;2023-04-03T00:12:21;46.38;;;26.35;;
63699;SDS011;49845;47.130;142.766;2023-04-03T00:14:53;50.33;;;24.33;;
63699;SDS011;49845;47.130;142.766;2023-04-03T00:17:31;53.83;;;24.80;;
63699;SDS011;49845;47.130;142.766;2023-04-03T00:20:04;47.33;;;25.33;;
63699;SDS011;49845;47.130;142.766;2023-04-03T00:22:38;59.78;;;24.38;;
63699;SDS011;49845;47.130;142.766;2023-04-03T00:25:09;47.88;;;24.13;;
63699;SDS011;49845;47.130;142.766;2023-04-03T00:27:41;54.97;;;23.63;;
63699;SDS011;49845;47.130;142.766;2023-04-03T00:30:13;54.72;;;20.50;;
63699;SDS011;49845;47.130;142.766;2023-04-03T00:32:47;40.05;;;20.13;;
63699;SDS011;49845;47.130;142.766;2023-04-03T00:35:20;41.83;;;20.38;;
63699;SDS011;49845;47.130;142.766;2023-04-03T00:37:55;46.40;;;19.38;;
63699;SDS011;49845;47.130;142.766;2023-04-03T00:40:27;39.28;;;19.05;;
63699;SDS011;49845;47.130;142.766;2023-04-03T00:43:05;38.03;;;18.15;;
63699;SDS011;49845;47.130;142.766;2023-04-03T00:45:43;36.38;;;17.30;;
63699;SDS011;49845;47.130;142.766;2023-04-03T00:48:18;30.42;;;16.65;;
63699;SDS011;49845;47.130;142.766;2023-04-03T00:50:53;39.17;;;17.25;;
63699;SDS011;49845;47.130;142.766;2023-04-03T00:53:28;38.15;;;18.38;;
63699;SDS011;49845;47.130;142.766;2023-04-03T00:56:05;40.22;;;17.73;;
63699;SDS011;49845;47.130;142.766;2023-04-03T00:58:39;47.30;;;18.83;;
63699;SDS011;49845;47.130;142.766;2023-04-03T01:01:16;33.50;;;16.48;;
63699;SDS011;49845;47.130;142.766;2023-04-03T01:03:52;35.33;;;16.85;;
63699;SDS011;49845;47.130;142.766;2023-04-03T01:06:25;40.55;;;16.48;;
63699;SDS011;49845;47.130;142.766;2023-04-03T01:09:03;31.05;;;14.73;;
63699;SDS011;49845;47.130;142.766;2023-04-03T01:11:35;33.90;;;16.30;;
63699;SDS011;49845;47.130;142.766;2023-04-03T01:14:07;37.20;;;16.27;;
63699;SDS011;49845;47.130;142.766;2023-04-03T01:16:39;33.38;;;15.30;;
63699;SDS011;49845;47.130;142.766;2023-04-03T01:19:12;34.70;;;16.58;;
63699;SDS011;49845;47.130;142.766;2023-04-03T01:22:05;44.35;;;14.82;;
63699;SDS011;49845;47.130;142.766;2023-04-03T01:24:49;40.63;;;14.30;;
63699;SDS011;49845;47.130;142.766;2023-04-03T01:27:21;33.28;;;14.80;;
63699;SDS011;49845;47.130;142.766;2023-04-03T01:29:53;42.08;;;14.65;;
63699;SDS011;49845;47.130;142.766;2023-04-03T01:32:27;37.63;;;13.90;;
63699;SDS011;49845;47.130;142.766;2023-04-03T01:34:59;37.70;;;15.65;;
63699;SDS011;49845;47.130;142.766;2023-04-03T01:37:31;35.65;;;15.40;;
63699;SDS011;49845;47.130;142.766;2023-04-03T01:40:03;38.58;;;13.85;;
63699;SDS011;49845;47.130;142.766;2023-04-03T01:42:35;36.35;;;14.07;;
63699;SDS011;49845;47.130;142.766;2023-04-03T01:45:07;35.72;;;13.38;;
63699;SDS011;49845;47.130;142.766;2023-04-03T01:47:41;26.63;;;13.40;;
63699;SDS011;49845;47.130;142.766;2023-04-03T01:50:13;38.08;;;14.07;;
63699;SDS011;49845;47.130;142.766;2023-04-03T01:52:44;42.95;;;12.80;;
63699;SDS011;49845;47.130;142.766;2023-04-03T01:55:16;32.25;;;11.68;;
63699;SDS011;49845;47.130;142.766;2023-04-03T01:57:47;31.15;;;11.32;;
63699;SDS011;49845;47.130;142.766;2023-04-03T02:00:19;23.77;;;9.68;;
63699;SDS011;49845;47.130;142.766;2023-04-03T02:02:53;31.00;;;9.75;;
63699;SDS011;49845;47.130;142.766;2023-04-03T02:05:27;27.13;;;9.07;;
63699;SDS011;49845;47.130;142.766;2023-04-03T02:08:12;28.50;;;9.20;;
63699;SDS011;49845;47.130;142.766;2023-04-03T02:11:23;22.20;;;8.50;;
63699;SDS011;49845;47.130;142.766;2023-04-03T02:13:56;19.45;;;8.43;;
63699;SDS011;49845;47.130;142.766;2023-04-03T02:16:28;24.25;;;9.18;;
63699;SDS011;49845;47.130;142.766;2023-04-03T02:19:02;19.85;;;7.72;;
63699;SDS011;49845;47.130;142.766;2023-04-03T02:21:34;19.23;;;8.10;;
63699;SDS011;49845;47.130;142.766;2023-04-03T02:24:06;24.13;;;7.82;;
63699;SDS011;49845;47.130;142.766;2023-04-03T02:26:38;16.80;;;8.30;;
63699;SDS011;49845;47.130;142.766;2023-04-03T02:29:09;19.42;;;7.35;;
63699;SDS011;49845;47.130;142.766;2023-04-03T02:31:41;17.38;;;7.13;;
63699;SDS011;49845;47.130;142.766;2023-04-03T02:34:15;22.88;;;8.52;;
63699;SDS011;49845;47.130;142.766;2023-04-03T02:36:47;19.50;;;7.93;;
63699;SDS011;49845;47.130;142.766;2023-04-03T02:39:19;24.77;;;8.90;;
63699;SDS011;49845;47.130;142.766;2023-04-03T02:41:52;20.50;;;7.35;;
63699;SDS011;49845;47.130;142.766;2023-04-03T02:44:25;24.48;;;6.00;;
63699;SDS011;49845;47.130;142.766;2023-04-03T02:47:04;14.25;;;6.70;;
63699;SDS011;49845;47.130;142.766;2023-04-03T02:49:38;17.25;;;6.78;;
63699;SDS011;49845;47.130;142.766;2023-04-03T02:52:12;14.85;;;6.15;;
63699;SDS011;49845;47.130;142.766;2023-04-03T02:54:44;22.15;;;7.03;;
63699;SDS011;49845;47.130;142.766;2023-04-03T02:57:16;12.90;;;6.68;;
63699;SDS011;49845;47.130;142.766;2023-04-03T02:59:48;22.77;;;7.05;;
63699;SDS011;49845;47.130;142.766;2023-04-03T03:02:19;15.75;;;6.45;;
63699;SDS011;49845;47.130;142.766;2023-04-03T03:04:53;12.48;;;6.18;;
63699;SDS011;49845;47.130;142.766;2023-04-03T03:07:25;17.40;;;6.70;;
63699;SDS011;49845;47.130;142.766;2023-04-03T03:09:56;16.85;;;6.20;;
63699;SDS011;49845;47.130;142.766;2023-04-03T03:12:28;14.45;;;6.13;;
63699;SDS011;49845;47.130;142.766;2023-04-03T03:15:00;18.38;;;6.55;;
63699;SDS011;49845;47.130;142.766;2023-04-03T03:17:31;19.30;;;7.10;;
63699;SDS011;49845;47.130;142.766;2023-04-03T03:20:06;17.02;;;6.93;;
63699;SDS011;49845;47.130;142.766;2023-04-03T03:22:39;18.60;;;6.57;;
63699;SDS011;49845;47.130;142.766;2023-04-03T03:25:11;15.82;;;7.35;;
63699;SDS011;49845;47.130;142.766;2023-04-03T03:27:44;14.27;;;6.68;;
63699;SDS011;49845;47.130;142.766;2023-04-03T03:30:16;20.42;;;7.40;;
63699;SDS011;49845;47.130;142.766;2023-04-03T03:32:49;15.20;;;6.90;;
63699;SDS011;49845;47.130;142.766;2023-04-03T03:35:33;16.90;;;7.88;;
63699;SDS011;49845;47.130;142.766;2023-04-03T03:38:05;25.73;;;8.10;;
63699;SDS011;49845;47.130;142.766;2023-04-03T03:40:37;16.75;;;7.07;;
63699;SDS011;49845;47.130;142.766;2023-04-03T03:43:08;25.23;;;7.20;;
63699;SDS011;49845;47.130;142.766;2023-04-03T03:45:39;13.65;;;6.65;;
63699;SDS011;49845;47.130;142.766;2023-04-03T03:48:11;17.83;;;7.35;;
63699;SDS011;49845;47.130;142.766;2023-04-03T03:50:44;21.17;;;7.28;;
63699;SDS011;49845;47.130;142.766;2023-04-03T03:53:16;18.05;;;6.57;;
63699;SDS011;49845;47.130;142.766;2023-04-03T03:55:48;14.73;;;6.82;;
63699;SDS011;49845;47.130;142.766;2023-04-03T03:58:20;13.30;;;6.63;;
63699;SDS011;49845;47.130;142.766;2023-04-03T04:00:54;19.58;;;6.25;;
63699;SDS011;49845;47.130;142.766;2023-04-03T04:03:32;16.67;;;6.82;;
63699;SDS011;49845;47.130;142.766;2023-04-03T04:06:06;16.75;;;6.68;;
63699;SDS011;49845;47.130;142.766;2023-04-03T04:08:38;14.20;;;5.63;;
63699;SDS011;49845;47.130;142.766;2023-04-03T04:11:10;15.55;;;6.90;;
63699;SDS011;49845;47.130;142.766;2023-04-03T04:13:41;17.73;;;7.15;;
63699;SDS011;49845;47.130;142.766;2023-04-03T04:16:13;20.10;;;7.10;;
63699;SDS011;49845;47.130;142.766;2023-04-03T04:18:45;17.98;;;6.90;;
63699;SDS011;49845;47.130;142.766;2023-04-03T04:21:18;12.93;;;6.70;;
63699;SDS011;49845;47.130;142.766;2023-04-03T04:23:49;17.80;;;6.22;;
63699;SDS011;49845;47.130;142.766;2023-04-03T04:26:21;11.27;;;5.88;;
63699;SDS011;49845;47.130;142.766;2023-04-03T04:28:53;22.63;;;7.13;;
63699;SDS011;49845;47.130;142.766;2023-04-03T04:31:24;14.48;;;6.75;;
63699;SDS011;49845;47.130;142.766;2023-04-03T04:33:56;18.50;;;6.75;;
63699;SDS011;49845;47.130;142.766;2023-04-03T04:36:30;12.60;;;5.70;;
63699;SDS011;49845;47.130;142.766;2023-04-03T04:39:04;16.38;;;6.10;;
63699;SDS011;49845;47.130;142.766;2023-04-03T04:41:35;13.75;;;6.10;;
63699;SDS011;49845;47.130;142.766;2023-04-03T04:44:08;15.73;;;6.30;;
63699;SDS011;49845;47.130;142.766;2023-04-03T04:46:39;12.50;;;6.22;;
63699;SDS011;49845;47.130;142.766;2023-04-03T04:49:11;12.30;;;6.53;;
63699;SDS011;49845;47.130;142.766;2023-04-03T04:51:45;17.38;;;7.13;;
63699;SDS011;49845;47.130;142.766;2023-04-03T04:54:18;23.63;;;6.82;;
63699;SDS011;49845;47.130;142.766;2023-04-03T04:56:50;16.77;;;6.78;;
63699;SDS011;49845;47.130;142.766;2023-04-03T04:59:22;17.90;;;7.25;;
63699;SDS011;49845;47.130;142.766;2023-04-03T05:01:53;21.63;;;6.65;;
63699;SDS011;49845;47.130;142.766;2023-04-03T05:04:25;12.23;;;6.85;;
63699;SDS011;49845;47.130;142.766;2023-04-03T05:06:59;22.25;;;7.20;;
63699;SDS011;49845;47.130;142.766;2023-04-03T05:09:30;20.75;;;7.10;;
63699;SDS011;49845;47.130;142.766;2023-04-03T05:12:02;17.08;;;6.60;;
63699;SDS011;49845;47.130;142.766;2023-04-03T05:14:34;16.02;;;6.90;;
63699;SDS011;49845;47.130;142.766;2023-04-03T05:17:05;14.75;;;6.63;;
63699;SDS011;49845;47.130;142.766;2023-04-03T05:19:37;13.93;;;6.95;;
63699;SDS011;49845;47.130;142.766;2023-04-03T05:22:10;15.05;;;7.43;;
63699;SDS011;49845;47.130;142.766;2023-04-03T05:24:41;17.77;;;7.07;;
63699;SDS011;49845;47.130;142.766;2023-04-03T05:27:13;22.02;;;7.93;;
63699;SDS011;49845;47.130;142.766;2023-04-03T05:29:45;17.08;;;7.03;;
63699;SDS011;49845;47.130;142.766;2023-04-03T05:32:22;16.00;;;8.00;;
63699;SDS011;49845;47.130;142.766;2023-04-03T05:34:55;15.85;;;6.85;;
63699;SDS011;49845;47.130;142.766;2023-04-03T05:37:29;19.02;;;6.95;;
63699;SDS011;49845;47.130;142.766;2023-04-03T05:40:01;12.27;;;6.85;;
63699;SDS011;49845;47.130;142.766;2023-04-03T05:42:33;17.38;;;7.05;;
63699;SDS011;49845;47.130;142.766;2023-04-03T05:45:05;19.73;;;7.63;;
63699;SDS011;49845;47.130;142.766;2023-04-03T05:47:38;19.50;;;8.30;;
63699;SDS011;49845;47.130;142.766;2023-04-03T05:50:10;20.27;;;8.63;;
63699;SDS011;49845;47.130;142.766;2023-04-03T05:52:44;20.88;;;8.77;;
63699;SDS011;49845;47.130;142.766;2023-04-03T05:55:18;27.27;;;8.48;;
63699;SDS011;49845;47.130;142.766;2023-04-03T05:57:49;17.83;;;7.85;;
63699;SDS011;49845;47.130;142.766;2023-04-03T06:00:21;18.27;;;8.15;;
63699;SDS011;49845;47.130;142.766;2023-04-03T06:02:53;24.15;;;9.13;;
63699;SDS011;49845;47.130;142.766;2023-04-03T06:05:25;19.10;;;7.63;;
63699;SDS011;49845;47.130;142.766;2023-04-03T06:07:59;31.05;;;8.40;;
63699;SDS011;49845;47.130;142.766;2023-04-03T06:10:31;17.67;;;8.65;;
63699;SDS011;49845;47.130;142.766;2023-04-03T06:13:03;18.15;;;8.40;;
63699;SDS011;49845;47.130;142.766;2023-04-03T06:15:36;20.00;;;7.80;;
63699;SDS011;49845;47.130;142.766;2023-04-03T06:18:08;19.13;;;7.95;;
63699;SDS011;49845;47.130;142.766;2023-04-03T06:20:39;23.13;;;8.35;;
63699;SDS011;49845;47.130;142.766;2023-04-03T06:23:13;17.17;;;7.80;;
63699;SDS011;49845;47.130;142.766;2023-04-03T06:25:44;19.15;;;8.25;;
63699;SDS011;49845;47.130;142.766;2023-04-03T06:28:16;16.50;;;7.65;;
63699;SDS011;49845;47.130;142.766;2023-04-03T06:30:47;24.90;;;7.72;;
63699;SDS011;49845;47.130;142.766;2023-04-03T06:33:19;16.85;;;7.55;;
63699;SDS011;49845;47.130;142.766;2023-04-03T06:35:55;26.33;;;7.57;;
63699;SDS011;49845;47.130;142.766;2023-04-03T06:38:30;23.10;;;8.02;;
63699;SDS011;49845;47.130;142.766;2023-04-03T06:41:02;21.02;;;8.65;;
63699;SDS011;49845;47.130;142.766;2023-04-03T06:43:33;19.73;;;8.55;;
63699;SDS011;49845;47.130;142.766;2023-04-03T06:46:05;22.17;;;8.45;;
63699;SDS011;49845;47.130;142.766;2023-04-03T06:48:39;17.75;;;7.50;;
63699;SDS011;49845;47.130;142.766;2023-04-03T06:51:15;19.23;;;7.50;;
63699;SDS011;49845;47.130;142.766;2023-04-03T06:53:51;20.70;;;7.70;;
63699;SDS011;49845;47.130;142.766;2023-04-03T06:56:25;22.48;;;7.55;;
63699;SDS011;49845;47.130;142.766;2023-04-03T06:58:57;22.50;;;7.88;;
63699;SDS011;49845;47.130;142.766;2023-04-03T07:01:30;23.98;;;8.85;;
63699;SDS011;49845;47.130;142.766;2023-04-03T07:04:11;24.08;;;8.10;;
63699;SDS011;49845;47.130;142.766;2023-04-03T07:06:44;22.52;;;8.23;;
63699;SDS011;49845;47.130;142.766;2023-04-03T07:09:20;23.98;;;9.30;;
63699;SDS011;49845;47.130;142.766;2023-04-03T07:11:54;24.38;;;10.23;;
63699;SDS011;49845;47.130;142.766;2023-04-03T07:14:26;33.42;;;9.15;;
63699;SDS011;49845;47.130;142.766;2023-04-03T07:16:57;17.40;;;7.65;;
63699;SDS011;49845;47.130;142.766;2023-04-03T07:19:27;29.40;;;8.93;;
63699;SDS011;49845;47.130;142.766;2023-04-03T07:21:58;24.08;;;8.15;;
63699;SDS011;49845;47.130;142.766;2023-04-03T07:24:31;28.85;;;8.52;;
63699;SDS011;49845;47.130;142.766;2023-04-03T07:27:01;32.08;;;10.25;;
63699;SDS011;49845;47.130;142.766;2023-04-03T07:29:34;20.85;;;9.55;;
63699;SDS011;49845;47.130;142.766;2023-04-03T07:32:05;27.27;;;8.20;;
63699;SDS011;49845;47.130;142.766;2023-04-03T07:34:36;26.92;;;10.02;;
63699;SDS011;49845;47.130;142.766;2023-04-03T07:37:07;24.38;;;8.10;;
63699;SDS011;49845;47.130;142.766;2023-04-03T07:39:39;23.90;;;7.28;;
63699;SDS011;49845;47.130;142.766;2023-04-03T07:42:13;19.73;;;7.45;;
63699;SDS011;49845;47.130;142.766;2023-04-03T07:44:44;20.33;;;7.90;;
63699;SDS011;49845;47.130;142.766;2023-04-03T07:47:15;22.10;;;7.90;;
63699;SDS011;49845;47.130;142.766;2023-04-03T07:49:45;26.73;;;9.30;;
63699;SDS011;49845;47.130;142.766;2023-04-03T07:52:16;26.23;;;9.35;;
63699;SDS011;49845;47.130;142.766;2023-04-03T07:54:48;26.05;;;9.02;;
63699;SDS011;49845;47.130;142.766;2023-04-03T07:57:19;27.05;;;8.18;;
63699;SDS011;49845;47.130;142.766;2023-04-03T07:59:49;26.65;;;7.75;;
63699;SDS011;49845;47.130;142.766;2023-04-03T08:02:20;20.13;;;8.18;;
63699;SDS011;49845;47.130;142.766;2023-04-03T08:04:51;37.63;;;13.32;;
63699;SDS011;49845;47.130;142.766;2023-04-03T08:07:22;21.98;;;9.98;;
63699;SDS011;49845;47.130;142.766;2023-04-03T08:09:56;19.90;;;8.63;;
63699;SDS011;49845;47.130;142.766;2023-04-03T08:12:29;16.98;;;7.38;;
63699;SDS011;49845;47.130;142.766;2023-04-03T08:15:02;17.33;;;6.63;;
63699;SDS011;49845;47.130;142.766;2023-04-03T08:17:34;17.05;;;7.43;;
63699;SDS011;49845;47.130;142.766;2023-04-03T08:20:05;16.20;;;7.00;;
63699;SDS011;49845;47.130;142.766;2023-04-03T08:22:39;18.30;;;8.70;;
63699;SDS011;49845;47.130;142.766;2023-04-03T08:25:11;22.35;;;10.93;;
63699;SDS011;49845;47.130;142.766;2023-04-03T08:27:42;23.67;;;12.15;;
63699;SDS011;49845;47.130;142.766;2023-04-03T08:30:14;18.10;;;8.75;;
63699;SDS011;49845;47.130;142.766;2023-04-03T08:32:48;14.18;;;6.72;;
63699;SDS011;49845;47.130;142.766;2023-04-03T08:35:25;17.83;;;8.10;;
63699;SDS011;49845;47.130;142.766;2023-04-03T08:37:57;27.52;;;7.70;;
63699;SDS011;49845;47.130;142.766;2023-04-03T08:40:30;20.38;;;8.30;;
63699;SDS011;49845;47.130;142.766;2023-04-03T08:43:10;20.40;;;7.82;;
63699;SDS011;49845;47.130;142.766;2023-04-03T08:45:59;21.67;;;8.50;;
63699;SDS011;49845;47.130;142.766;2023-04-03T08:48:36;19.45;;;9.15;;
63699;SDS011;49845;47.130;142.766;2023-04-03T08:51:15;17.95;;;10.65;;
63699;SDS011;49845;47.130;142.766;2023-04-03T08:53:52;27.48;;;10.52;;
63699;SDS011;49845;47.130;142.766;2023-04-03T08:56:30;28.00;;;13.90;;
63699;SDS011;49845;47.130;142.766;2023-04-03T08:59:04;29.85;;;12.18;;
63699;SDS011;49845;47.130;142.766;2023-04-03T09:01:40;28.88;;;10.00;;
63699;SDS011;49845;47.130;142.766;2023-04-03T09:04:14;25.08;;;10.20;;
63699;SDS011;49845;47.130;142.766;2023-04-03T09:06:48;28.55;;;11.35;;
63699;SDS011;49845;47.130;142.766;2023-04-03T09:09:30;30.00;;;10.55;;
63699;SDS011;49845;47.130;142.766;2023-04-03T09:12:10;66.18;;;25.42;;
63699;SDS011;49845;47.130;142.766;2023-04-03T09:14:46;33.15;;;15.02;;
63699;SDS011;49845;47.130;142.766;2023-04-03T09:17:33;33.08;;;13.80;;
63699;SDS011;49845;47.130;142.766;2023-04-03T09:20:15;32.17;;;12.43;;
63699;SDS011;49845;47.130;142.766;2023-04-03T09:22:51;21.17;;;10.55;;
63699;SDS011;49845;47.130;142.766;2023-04-03T09:25:23;28.52;;;9.95;;
63699;SDS011;49845;47.130;142.766;2023-04-03T09:27:59;25.88;;;10.77;;
63699;SDS011;49845;47.130;142.766;2023-04-03T09:30:39;27.38;;;8.82;;
63699;SDS011;49845;47.130;142.766;2023-04-03T09:33:16;24.10;;;9.95;;
63699;SDS011;49845;47.130;142.766;2023-04-03T09:35:48;24.02;;;9.23;;
63699;SDS011;49845;47.130;142.766;2023-04-03T09:38:20;26.77;;;10.73;;
63699;SDS011;49845;47.130;142.766;2023-04-03T09:41:02;24.83;;;10.52;;
63699;SDS011;49845;47.130;142.766;2023-04-03T09:43:37;23.67;;;10.90;;
63699;SDS011;49845;47.130;142.766;2023-04-03T09:46:33;26.33;;;11.98;;
63699;SDS011;49845;47.130;142.766;2023-04-03T09:49:16;24.80;;;11.27;;
63699;SDS011;49845;47.130;142.766;2023-04-03T09:51:48;22.02;;;10.63;;
63699;SDS011;49845;47.130;142.766;2023-04-03T09:54:34;24.38;;;10.55;;
63699;SDS011;49845;47.130;142.766;2023-04-03T09:57:09;21.08;;;9.90;;
63699;SDS011;49845;47.130;142.766;2023-04-03T09:59:45;29.08;;;11.20;;
63699;SDS011;49845;47.130;142.766;2023-04-03T10:02:32;31.95;;;12.07;;
63699;SDS011;49845;47.130;142.766;2023-04-03T10:05:23;30.05;;;12.85;;
63699;SDS011;49845;47.130;142.766;2023-04-03T10:16:24;29.52;;;13.65;;
63699;SDS011;49845;47.130;142.766;2023-04-03T10:19:01;30.65;;;14.95;;
63699;SDS011;49845;47.130;142.766;2023-04-03T10:21:44;29.35;;;14.35;;
63699;SDS011;49845;47.130;142.766;2023-04-03T10:24:21;32.10;;;11.45;;
63699;SDS011;49845;47.130;142.766;2023-04-03T10:26:58;23.52;;;11.15;;
63699;SDS011;49845;47.130;142.766;2023-04-03T10:29:38;24.80;;;10.50;;
63699;SDS011;49845;47.130;142.766;2023-04-03T10:32:23;28.60;;;15.93;;
63699;SDS011;49845;47.130;142.766;2023-04-03T10:35:09;35.10;;;15.35;;
63699;SDS011;49845;47.130;142.766;2023-04-03T10:37:52;32.22;;;14.88;;
63699;SDS011;49845;47.130;142.766;2023-04-03T10:40:33;24.63;;;14.00;;
63699;SDS011;49845;47.130;142.766;2023-04-03T10:43:14;25.83;;;13.80;;
63699;SDS011;49845;47.130;142.766;2023-04-03T10:45:58;25.58;;;13.02;;
63699;SDS011;49845;47.130;142.766;2023-04-03T10:48:43;25.80;;;13.48;;
63699;SDS011;49845;47.130;142.766;2023-04-03T10:51:33;33.80;;;14.68;;
63699;SDS011;49845;47.130;142.766;2023-04-03T10:54:16;36.95;;;12.05;;
63699;SDS011;49845;47.130;142.766;2023-04-03T10:56:54;40.80;;;18.90;;
63699;SDS011;49845;47.130;142.766;2023-04-03T10:59:40;36.95;;;18.52;;
63699;SDS011;49845;47.130;142.766;2023-04-03T11:02:24;28.27;;;13.85;;
63699;SDS011;49845;47.130;142.766;2023-04-03T11:05:06;20.52;;;11.40;;
63699;SDS011;49845;47.130;142.766;2023-04-03T11:07:48;22.20;;;11.00;;
63699;SDS011;49845;47.130;142.766;2023-04-03T11:10:23;33.97;;;11.10;;
63699;SDS011;49845;47.130;142.766;2023-04-03T11:13:07;25.52;;;11.07;;
63699;SDS011;49845;47.130;142.766;2023-04-03T11:15:43;23.73;;;10.43;;
63699;SDS011;49845;47.130;142.766;2023-04-03T11:18:15;22.92;;;12.02;;
63699;SDS011;49845;47.130;142.766;2023-04-03T11:20:57;22.50;;;11.88;;
63699;SDS011;49845;47.130;142.766;2023-04-03T11:23:33;27.67;;;12.38;;
63699;SDS011;49845;47.130;142.766;2023-04-03T11:26:18;26.13;;;14.45;;
63699;SDS011;49845;47.130;142.766;2023-04-03T11:28:58;33.50;;;17.17;;
63699;SDS011;49845;47.130;142.766;2023-04-03T11:31:47;25.25;;;12.65;;
63699;SDS011;49845;47.130;142.766;2023-04-03T11:34:39;27.63;;;12.73;;
63699;SDS011;49845;47.130;142.766;2023-04-03T11:37:19;30.60;;;13.52;;
63699;SDS011;49845;47.130;142.766;2023-04-03T11:40:00;96.65;;;40.30;;
63699;SDS011;49845;47.130;142.766;2023-04-03T11:42:37;76.00;;;32.03;;
63699;SDS011;49845;47.130;142.766;2023-04-03T11:45:17;83.43;;;32.13;;
63699;SDS011;49845;47.130;142.766;2023-04-03T11:48:45;58.22;;;25.17;;
63699;SDS011;49845;47.130;142.766;2023-04-03T12:13:00;210.57;;;62.17;;
63699;SDS011;49845;47.130;142.766;2023-04-03T12:15:52;306.02;;;89.95;;
63699;SDS011;49845;47.130;142.766;2023-04-03T12:18:53;160.95;;;50.83;;
63699;SDS011;49845;47.130;142.766;2023-04-03T12:24:48;34.65;;;13.75;;
63699;SDS011;49845;47.130;142.766;2023-04-03T12:27:33;35.75;;;14.38;;
63699;SDS011;49845;47.130;142.766;2023-04-03T12:30:15;24.35;;;12.73;;
63699;SDS011;49845;47.130;142.766;2023-04-03T12:35:49;29.95;;;16.27;;
63699;SDS011;49845;47.130;142.766;2023-04-03T12:38:50;43.67;;;16.63;;
63699;SDS011;49845;47.130;142.766;2023-04-03T12:41:36;40.47;;;17.38;;
63699;SDS011;49845;47.130;142.766;2023-04-03T12:44:23;50.17;;;18.83;;
63699;SDS011;49845;47.130;142.766;2023-04-03T12:47:24;43.58;;;18.80;;
63699;SDS011;49845;47.130;142.766;2023-04-03T12:50:00;45.70;;;20.90;;
63699;SDS011;49845;47.130;142.766;2023-04-03T12:52:49;46.10;;;18.98;;
63699;SDS011;49845;47.130;142.766;2023-04-03T12:55:24;52.50;;;19.48;;
63699;SDS011;49845;47.130;142.766;2023-04-03T12:57:55;57.25;;;19.58;;
63699;SDS011;49845;47.130;142.766;2023-04-03T13:00:30;45.47;;;20.45;;
63699;SDS011;49845;47.130;142.766;2023-04-03T13:03:05;49.28;;;21.15;;
63699;SDS011;49845;47.130;142.766;2023-04-03T13:05:49;49.15;;;20.30;;
63699;SDS011;49845;47.130;142.766;2023-04-03T13:08:20;50.53;;;20.90;;
63699;SDS011;49845;47.130;142.766;2023-04-03T13:10:53;49.97;;;19.98;;
63699;SDS011;49845;47.130;142.766;2023-04-03T13:13:30;55.30;;;23.42;;
63699;SDS011;49845;47.130;142.766;2023-04-03T13:16:07;60.33;;;25.30;;
63699;SDS011;49845;47.130;142.766;2023-04-03T13:21:20;89.03;;;28.08;;
63699;SDS011;49845;47.130;142.766;2023-04-03T13:23:54;103.68;;;28.80;;
63699;SDS011;49845;47.130;142.766;2023-04-03T13:26:40;108.80;;;30.52;;
63699;SDS011;49845;47.130;142.766;2023-04-03T13:29:18;108.18;;;32.92;;
63699;SDS011;49845;47.130;142.766;2023-04-03T13:31:58;94.35;;;30.77;;
63699;SDS011;49845;47.130;142.766;2023-04-03T13:34:35;113.47;;;33.72;;
63699;SDS011;49845;47.130;142.766;2023-04-03T13:37:11;96.50;;;32.35;;
63699;SDS011;49845;47.130;142.766;2023-04-03T13:39:57;136.98;;;33.60;;
63699;SDS011;49845;47.130;142.766;2023-04-03T13:42:31;141.60;;;34.58;;
63699;SDS011;49845;47.130;142.766;2023-04-03T13:45:11;71.70;;;27.92;;
63699;SDS011;49845;47.130;142.766;2023-04-03T13:47:48;77.40;;;29.23;;
63699;SDS011;49845;47.130;142.766;2023-04-03T13:50:22;53.15;;;26.98;;
63699;SDS011;49845;47.130;142.766;2023-04-03T13:53:02;51.75;;;27.38;;
63699;SDS011;49845;47.130;142.766;2023-04-03T13:55:53;59.13;;;26.88;;
63699;SDS011;49845;47.130;142.766;2023-04-03T13:58:35;51.63;;;25.95;;
63699;SDS011;49845;47.130;142.766;2023-04-03T14:01:21;48.70;;;25.88;;
63699;SDS011;49845;47.130;142.766;2023-04-03T14:04:45;50.33;;;26.70;;
63699;SDS011;49845;47.130;142.766;2023-04-03T14:07:46;50.13;;;26.75;;
63699;SDS011;49845;47.130;142.766;2023-04-03T14:10:28;55.05;;;26.20;;
63699;SDS011;49845;47.130;142.766;2023-04-03T14:13:40;94.28;;;26.33;;
63699;SDS011;49845;47.130;142.766;2023-04-03T14:16:32;124.53;;;28.08;;
63699;SDS011;49845;47.130;142.766;2023-04-03T14:19:23;111.05;;;29.95;;
63699;SDS011;49845;47.130;142.766;2023-04-03T14:22:25;103.72;;;27.15;;
63699;SDS011;49845;47.130;142.766;2023-04-03T14:25:11;95.45;;;27.38;;
63699;SDS011;49845;47.130;142.766;2023-04-03T14:28:25;107.32;;;27.13;;
63699;SDS011;49845;47.130;142.766;2023-04-03T14:31:13;83.75;;;27.15;;
63699;SDS011;49845;47.130;142.766;2023-04-03T14:34:09;72.70;;;27.00;;
63699;SDS011;49845;47.130;142.766;2023-04-03T14:36:54;64.55;;;29.08;;
63699;SDS011;49845;47.130;142.766;2023-04-03T14:39:38;93.75;;;28.40;;
63699;SDS011;49845;47.130;142.766;2023-04-03T14:42:14;78.70;;;25.30;;
63699;SDS011;49845;47.130;142.766;2023-04-03T14:44:46;136.13;;;27.25;;
63699;SDS011;49845;47.130;142.766;2023-04-03T14:47:19;170.88;;;31.50;;
63699;SDS011;49845;47.130;142.766;2023-04-03T14:49:59;181.70;;;30.63;;
63699;SDS011;49845;47.130;142.766;2023-04-03T14:52:34;130.15;;;28.13;;
63699;SDS011;49845;47.130;142.766;2023-04-03T14:55:09;177.00;;;28.25;;
63699;SDS011;49845;47.130;142.766;2023-04-03T14:57:48;135.98;;;27.63;;
63699;SDS011;49845;47.130;142.766;2023-04-03T15:00:26;113.88;;;26.52;;
63699;SDS011;49845;47.130;142.766;2023-04-03T15:03:10;97.57;;;26.30;;
63699;SDS011;49845;47.130;142.766;2023-04-03T15:05:57;99.13;;;28.30;;
63699;SDS011;49845;47.130;142.766;2023-04-03T15:08:52;96.53;;;26.38;;
63699;SDS011;49845;47.130;142.766;2023-04-03T15:11:48;114.60;;;27.20;;
63699;SDS011;49845;47.130;142.766;2023-04-03T15:14:30;114.40;;;25.50;;
63699;SDS011;49845;47.130;142.766;2023-04-03T15:17:19;118.07;;;26.13;;
63699;SDS011;49845;47.130;142.766;2023-04-03T15:19:54;135.15;;;25.10;;
63699;SDS011;49845;47.130;142.766;2023-04-03T15:22:31;130.13;;;24.50;;
63699;SDS011;49845;47.130;142.766;2023-04-03T15:25:15;119.07;;;21.95;;
63699;SDS011;49845;47.130;142.766;2023-04-03T15:27:50;147.48;;;25.70;;
63699;SDS011;49845;47.130;142.766;2023-04-03T15:30:22;132.10;;;23.92;;
63699;SDS011;49845;47.130;142.766;2023-04-03T15:33:08;199.32;;;25.63;;
63699;SDS011;49845;47.130;142.766;2023-04-03T15:39:48;141.38;;;22.58;;